createdAt,value
2023-01-08T00:01:16.577Z,101668.53
2023-01-08T00:03:44.248Z,101657.03
2023-01-08T00:06:13.358Z,101661.88
2023-01-08T00:08:40.938Z,101662.25
2023-01-08T00:11:08.137Z,101664.72
2023-01-08T00:13:35.819Z,101661.44
2023-01-08T00:16:07.398Z,101650.75
2023-01-08T00:18:34.665Z,101649.13
2023-01-08T00:21:02.349Z,101644.38
2023-01-08T00:23:29.733Z,101638.44
2023-01-08T00:25:57.152Z,101637.59
2023-01-08T00:28:24.467Z,101643.13
2023-01-08T00:30:51.745Z,101640.94
2023-01-08T00:33:19.336Z,101645.72
2023-01-08T00:35:46.585Z,101624.94
2023-01-08T00:38:13.968Z,101622.94
2023-01-08T00:40:41.233Z,101624.16
2023-01-08T00:43:08.909Z,101621.03
2023-01-08T00:45:36.132Z,101619.25
2023-01-08T00:48:03.513Z,101621.00
2023-01-08T00:50:31.223Z,101625.28
2023-01-08T00:52:58.616Z,101622.13
2023-01-08T00:55:25.815Z,101636.06
2023-01-08T00:57:53.241Z,101612.78
2023-01-08T01:00:45.343Z,101606.47
2023-01-08T01:03:12.680Z,101595.41
2023-01-08T01:05:39.900Z,101595.22
2023-01-08T01:08:07.261Z,101588.66
2023-01-08T01:10:34.932Z,101588.22
2023-01-08T01:13:02.302Z,101578.78
2023-01-08T01:15:29.511Z,101578.94
2023-01-08T01:17:57.066Z,101577.91
2023-01-08T01:20:24.306Z,101573.38
2023-01-08T01:22:51.641Z,101576.41
2023-01-08T01:25:18.917Z,101576.34
2023-01-08T01:27:46.310Z,101579.13
2023-01-08T01:30:13.551Z,101569.34
2023-01-08T01:32:40.833Z,101556.38
2023-01-08T01:35:08.287Z,101558.09
2023-01-08T01:37:35.789Z,101560.06
2023-01-08T01:40:03.139Z,101553.69
2023-01-08T01:42:43.875Z,101551.63
2023-01-08T01:45:19.267Z,101557.94
2023-01-08T01:47:49.770Z,101549.06
2023-01-08T01:50:19.982Z,101551.19
2023-01-08T01:52:53.474Z,101555.47
2023-01-08T01:55:21.011Z,101540.19
2023-01-08T01:57:55.108Z,101539.00
2023-01-08T02:00:23.392Z,101545.94
2023-01-08T02:02:51.059Z,101535.59
2023-01-08T02:05:19.298Z,101526.06
2023-01-08T02:07:56.518Z,101512.94
2023-01-08T02:10:36.865Z,101506.59
2023-01-08T02:13:10.677Z,101512.25
2023-01-08T02:15:52.673Z,101511.19
2023-01-08T02:18:21.262Z,101503.19
2023-01-08T02:20:56.705Z,101516.00
2023-01-08T02:23:30.432Z,101511.09
2023-01-08T02:26:00.710Z,101509.00
2023-01-08T02:28:29.148Z,101502.84
2023-01-08T02:30:57.003Z,101504.94
2023-01-08T02:33:24.769Z,101500.78
2023-01-08T02:35:54.440Z,101495.63
2023-01-08T02:38:22.470Z,101497.09
2023-01-08T02:41:02.263Z,101498.94
2023-01-08T02:43:38.024Z,101493.00
2023-01-08T02:46:06.632Z,101494.22
2023-01-08T02:48:42.320Z,101481.72
2023-01-08T02:51:17.050Z,101491.09
2023-01-08T02:53:45.952Z,101496.94
2023-01-08T02:56:18.547Z,101490.94
2023-01-08T02:58:48.102Z,101481.72
2023-01-08T03:01:16.591Z,101480.91
2023-01-08T03:03:46.166Z,101476.25
2023-01-08T03:06:16.228Z,101489.03
2023-01-08T03:08:46.610Z,101492.19
2023-01-08T03:11:15.632Z,101496.41
2023-01-08T03:13:46.832Z,101496.38
2023-01-08T03:16:16.696Z,101492.00
2023-01-08T03:18:52.695Z,101487.28
2023-01-08T03:21:22.254Z,101474.72
2023-01-08T03:23:50.870Z,101472.03
2023-01-08T03:26:19.957Z,101479.56
2023-01-08T03:28:48.676Z,101496.63
2023-01-08T03:31:16.369Z,101487.63
2023-01-08T03:33:44.402Z,101482.56
2023-01-08T03:36:14.205Z,101492.25
2023-01-08T03:38:45.180Z,101483.81
2023-01-08T03:41:15.133Z,101483.78
2023-01-08T03:43:42.398Z,101478.22
2023-01-08T03:46:19.064Z,101466.63
2023-01-08T03:48:46.860Z,101474.31
2023-01-08T03:51:14.109Z,101466.91
2023-01-08T03:53:41.547Z,101473.94
2023-01-08T03:56:08.750Z,101462.84
2023-01-08T03:58:36.149Z,101466.84
2023-01-08T04:01:03.917Z,101475.94
2023-01-08T04:03:31.187Z,101475.47
2023-01-08T04:06:01.500Z,101473.47
2023-01-08T04:08:28.974Z,101484.94
2023-01-08T04:10:56.361Z,101494.84
2023-01-08T04:13:23.649Z,101475.78
2023-01-08T04:15:51.639Z,101487.41
2023-01-08T04:18:18.988Z,101478.53
2023-01-08T04:20:47.009Z,101476.38
2023-01-08T04:23:14.573Z,101478.44
2023-01-08T04:25:41.929Z,101467.81
2023-01-08T04:28:09.422Z,101472.56
2023-01-08T04:30:36.953Z,101466.84
2023-01-08T04:33:04.313Z,101461.03
2023-01-08T04:35:31.708Z,101450.72
2023-01-08T04:37:59.140Z,101463.56
2023-01-08T04:40:26.537Z,101456.34
2023-01-08T04:42:54.031Z,101450.06
2023-01-08T04:45:21.316Z,101446.59
2023-01-08T04:47:48.561Z,101442.41
2023-01-08T04:50:15.844Z,101442.75
2023-01-08T04:52:43.213Z,101446.47
2023-01-08T04:55:10.465Z,101437.19
2023-01-08T04:57:37.711Z,101445.69
2023-01-08T05:00:05.489Z,101444.25
2023-01-08T05:02:33.000Z,101426.38
2023-01-08T05:05:00.289Z,101430.66
2023-01-08T05:07:27.572Z,101416.81
2023-01-08T05:09:54.789Z,101421.13
2023-01-08T05:12:22.143Z,101409.00
2023-01-08T05:14:49.412Z,101411.72
2023-01-08T05:17:16.651Z,101422.50
2023-01-08T05:19:43.873Z,101410.09
2023-01-08T05:22:11.230Z,101402.59
2023-01-08T05:24:38.450Z,101401.75
2023-01-08T05:27:05.994Z,101406.53
2023-01-08T05:29:33.519Z,101403.97
2023-01-08T05:32:00.760Z,101403.41
2023-01-08T05:34:28.045Z,101395.66
2023-01-08T05:36:55.389Z,101395.28
2023-01-08T05:39:22.587Z,101392.94
2023-01-08T05:41:49.972Z,101387.41
2023-01-08T05:44:17.276Z,101384.03
2023-01-08T05:46:44.572Z,101383.91
2023-01-08T05:49:11.782Z,101380.44
2023-01-08T05:51:39.283Z,101369.59
2023-01-08T05:54:06.500Z,101372.00
2023-01-08T05:56:33.756Z,101368.16
2023-01-08T05:59:01.019Z,101363.19
2023-01-08T06:01:28.493Z,101368.38
2023-01-08T06:03:56.712Z,101367.53
2023-01-08T06:06:24.225Z,101369.53
2023-01-08T06:08:51.483Z,101361.75
2023-01-08T06:11:18.760Z,101357.09
2023-01-08T06:13:46.032Z,101359.91
2023-01-08T06:16:13.607Z,101353.97
2023-01-08T06:18:40.864Z,101347.34
2023-01-08T06:21:08.208Z,101345.81
2023-01-08T06:23:35.550Z,101350.28
2023-01-08T06:26:04.358Z,101354.44
2023-01-08T06:28:32.195Z,101347.53
2023-01-08T06:31:00.115Z,101345.53
2023-01-08T06:33:27.805Z,101342.84
2023-01-08T06:35:55.225Z,101346.72
2023-01-08T06:38:23.048Z,101365.50
2023-01-08T06:40:50.285Z,101346.31
2023-01-08T06:43:18.091Z,101352.38
2023-01-08T06:45:45.395Z,101341.41
2023-01-08T06:48:12.589Z,101329.75
2023-01-08T06:50:39.895Z,101320.03
2023-01-08T06:53:07.105Z,101334.69
2023-01-08T06:55:34.441Z,101328.78
2023-01-08T06:58:01.714Z,101327.88
2023-01-08T07:00:29.051Z,101322.09
2023-01-08T07:02:56.381Z,101326.03
2023-01-08T07:05:24.055Z,101317.78
2023-01-08T07:07:51.619Z,101318.94
2023-01-08T07:10:20.156Z,101319.28
2023-01-08T07:12:48.006Z,101325.28
2023-01-08T07:15:15.800Z,101318.69
2023-01-08T07:17:43.040Z,101319.06
2023-01-08T07:20:11.002Z,101324.81
2023-01-08T07:22:38.212Z,101308.69
2023-01-08T07:25:05.744Z,101315.72
2023-01-08T07:27:33.182Z,101309.09
2023-01-08T07:30:00.723Z,101309.03
2023-01-08T07:32:27.967Z,101319.22
2023-01-08T07:34:59.148Z,101321.31
2023-01-08T07:37:26.667Z,101329.13
2023-01-08T07:39:53.964Z,101323.41
2023-01-08T07:42:21.575Z,101310.34
2023-01-08T07:44:48.794Z,101310.72
2023-01-08T07:47:16.154Z,101302.84
2023-01-08T07:49:43.450Z,101301.03
2023-01-08T07:52:10.784Z,101290.25
2023-01-08T07:54:38.003Z,101301.94
2023-01-08T07:57:05.405Z,101292.97
2023-01-08T07:59:32.597Z,101295.28
2023-01-08T08:02:00.043Z,101285.41
2023-01-08T08:04:27.407Z,101286.78
2023-01-08T08:06:54.875Z,101297.25
2023-01-08T08:09:22.211Z,101284.88
2023-01-08T08:11:49.498Z,101293.56
2023-01-08T08:14:16.733Z,101278.78
2023-01-08T08:16:44.102Z,101277.03
2023-01-08T08:19:12.676Z,101288.44
2023-01-08T08:21:40.050Z,101283.91
2023-01-08T08:24:07.332Z,101287.03
2023-01-08T08:26:34.712Z,101283.69
2023-01-08T08:29:01.946Z,101293.88
2023-01-08T08:31:29.387Z,101294.19
2023-01-08T08:33:56.765Z,101289.31
2023-01-08T08:36:32.913Z,101288.38
2023-01-08T08:39:00.243Z,101276.69
2023-01-08T08:41:27.517Z,101280.78
2023-01-08T08:43:54.844Z,101278.53
2023-01-08T08:46:22.297Z,101286.81
2023-01-08T08:48:49.609Z,101263.47
2023-01-08T08:51:16.887Z,101269.22
2023-01-08T08:53:44.318Z,101279.19
2023-01-08T08:56:11.554Z,101272.56
2023-01-08T08:58:41.626Z,101273.38
2023-01-08T09:01:09.233Z,101269.03
2023-01-08T09:03:36.567Z,101261.63
2023-01-08T09:06:03.976Z,101260.50
2023-01-08T09:08:31.260Z,101260.28
2023-01-08T09:10:58.598Z,101262.75
2023-01-08T09:13:25.818Z,101257.84
2023-01-08T09:15:53.150Z,101265.16
2023-01-08T09:18:20.383Z,101265.25
2023-01-08T09:20:47.802Z,101255.19
2023-01-08T09:23:15.021Z,101253.84
2023-01-08T09:25:42.246Z,101252.41
2023-01-08T09:28:12.329Z,101257.16
2023-01-08T09:30:40.313Z,101262.34
2023-01-08T09:33:07.731Z,101253.38
2023-01-08T09:35:35.134Z,101233.13
2023-01-08T09:38:02.367Z,101240.22
2023-01-08T09:40:35.567Z,101240.88
2023-01-08T09:43:04.076Z,101231.72
2023-01-08T09:45:32.319Z,101226.78
2023-01-08T09:48:02.250Z,101230.03
2023-01-08T09:50:30.813Z,101230.41
2023-01-08T09:52:58.156Z,101227.28
2023-01-08T09:55:25.768Z,101227.53
2023-01-08T09:57:53.499Z,101225.56
2023-01-08T10:00:32.173Z,101233.00
2023-01-08T10:02:59.665Z,101231.88
2023-01-08T10:05:28.309Z,101243.66
2023-01-08T10:07:55.624Z,101227.41
2023-01-08T10:10:26.236Z,101236.78
2023-01-08T10:12:54.788Z,101233.44
2023-01-08T10:15:22.562Z,101227.97
2023-01-08T10:18:00.942Z,101227.88
2023-01-08T10:20:28.994Z,101221.72
2023-01-08T10:22:57.087Z,101220.63
2023-01-08T10:25:25.702Z,101227.22
2023-01-08T10:27:54.343Z,101218.19
2023-01-08T10:30:23.684Z,101211.53
2023-01-08T10:32:54.439Z,101212.78
2023-01-08T10:35:24.532Z,101200.72
2023-01-08T10:37:52.256Z,101192.81
2023-01-08T10:40:22.859Z,101186.84
2023-01-08T10:42:51.077Z,101178.50
2023-01-08T10:45:28.561Z,101172.97
2023-01-08T10:47:57.934Z,101164.63
2023-01-08T10:50:27.124Z,101154.41
2023-01-08T10:52:56.261Z,101146.81
2023-01-08T10:55:23.577Z,101134.81
2023-01-08T10:58:13.988Z,101145.50
2023-01-08T11:00:41.737Z,101138.53
2023-01-08T11:03:18.987Z,101134.00
2023-01-08T11:05:46.412Z,101137.22
2023-01-08T11:08:16.563Z,101120.41
2023-01-08T11:10:52.458Z,101114.28
2023-01-08T11:13:19.928Z,101101.13
2023-01-08T11:15:47.303Z,101096.22
2023-01-08T11:18:20.372Z,101090.22
2023-01-08T11:20:48.175Z,101069.13
2023-01-08T11:23:17.044Z,101067.41
2023-01-08T11:25:56.579Z,101066.00
2023-01-08T11:28:30.949Z,101063.88
2023-01-08T11:31:03.658Z,101051.44
2023-01-08T11:33:32.941Z,101063.63
2023-01-08T11:36:08.259Z,101067.91
2023-01-08T11:38:35.674Z,101057.16
2023-01-08T11:41:17.099Z,101051.16
2023-01-08T11:43:45.021Z,101042.22
2023-01-08T11:46:18.923Z,101037.19
2023-01-08T11:49:01.264Z,101030.63
2023-01-08T11:51:51.286Z,101016.34
2023-01-08T11:54:30.720Z,101014.72
2023-01-08T11:57:05.142Z,101004.72
2023-01-08T11:59:38.539Z,101011.41
2023-01-08T12:02:19.972Z,101007.34
2023-01-08T12:05:07.134Z,101003.78
2023-01-08T12:07:44.736Z,100989.91
2023-01-08T12:10:22.890Z,101000.03
2023-01-08T12:13:10.421Z,100993.31
2023-01-08T12:15:40.752Z,100994.75
2023-01-08T12:18:28.263Z,100996.59
2023-01-08T12:21:16.568Z,100991.19
2023-01-08T12:24:04.993Z,100997.50
2023-01-08T12:26:50.675Z,100994.69
2023-01-08T12:29:35.647Z,100994.13
2023-01-08T12:32:19.078Z,100985.88
2023-01-08T12:34:46.818Z,100988.06
2023-01-08T12:37:23.780Z,100970.38
2023-01-08T12:39:56.824Z,100975.84
2023-01-08T12:42:28.335Z,100973.66
2023-01-08T12:44:57.848Z,100977.31
2023-01-08T12:47:27.803Z,100979.00
2023-01-08T12:50:00.434Z,100981.22
2023-01-08T12:52:27.725Z,100969.97
2023-01-08T12:55:15.207Z,100960.47
2023-01-08T12:57:52.344Z,100949.09
2023-01-08T13:00:22.615Z,100947.69
2023-01-08T13:02:49.947Z,100935.72
2023-01-08T13:05:20.205Z,100931.78
2023-01-08T13:07:49.569Z,100929.78
2023-01-08T13:10:37.126Z,100930.50
2023-01-08T13:13:05.946Z,100930.84
2023-01-08T13:15:33.855Z,100948.88
2023-01-08T13:18:06.063Z,100945.03
2023-01-08T13:20:33.596Z,100933.88
2023-01-08T13:23:02.567Z,100937.09
2023-01-08T13:25:34.638Z,100928.84
2023-01-08T13:28:17.195Z,100931.91
2023-01-08T13:30:48.423Z,100926.81
2023-01-08T13:33:49.176Z,100927.91
2023-01-08T13:36:17.897Z,100939.63
2023-01-08T13:38:45.539Z,100934.03
2023-01-08T13:41:29.882Z,100940.88
2023-01-08T13:44:01.687Z,100944.94
2023-01-08T13:46:29.420Z,100932.94
2023-01-08T13:49:07.114Z,100935.72
2023-01-08T13:51:44.883Z,100939.31
2023-01-08T13:54:12.062Z,100939.22
2023-01-08T13:56:40.249Z,100938.06
2023-01-08T13:59:18.780Z,100944.53
2023-01-08T14:01:52.874Z,100941.41
2023-01-08T14:04:21.666Z,100933.59
2023-01-08T14:06:48.930Z,100949.03
2023-01-08T14:09:24.001Z,100941.06
2023-01-08T14:11:57.922Z,100937.94
2023-01-08T14:14:25.292Z,100934.19
2023-01-08T14:16:53.243Z,100930.88
2023-01-08T14:19:22.478Z,100920.47
2023-01-08T14:21:51.732Z,100919.28
2023-01-08T14:24:19.704Z,100923.63
2023-01-08T14:26:53.400Z,100919.06
2023-01-08T14:29:22.005Z,100915.78
2023-01-08T14:31:53.774Z,100919.75
2023-01-08T14:34:22.300Z,100918.22
2023-01-08T14:36:50.486Z,100920.78
2023-01-08T14:39:24.894Z,100915.78
2023-01-08T14:42:14.087Z,100927.03
2023-01-08T14:44:42.615Z,100924.66
2023-01-08T14:47:19.682Z,100902.56
2023-01-08T14:49:50.957Z,100903.97
2023-01-08T14:52:18.624Z,100916.56
2023-01-08T14:54:48.277Z,100903.97
2023-01-08T14:57:17.559Z,100906.50
2023-01-08T14:59:49.703Z,100896.28
2023-01-08T15:02:28.276Z,100892.28
2023-01-08T15:05:14.479Z,100874.72
2023-01-08T15:07:43.275Z,100889.03
2023-01-08T15:10:30.279Z,100882.69
2023-01-08T15:12:57.809Z,100884.47
2023-01-08T15:15:25.014Z,100881.13
2023-01-08T15:17:52.494Z,100879.09
2023-01-08T15:20:20.952Z,100875.81
2023-01-08T15:22:48.443Z,100871.31
2023-01-08T15:25:28.726Z,100869.34
2023-01-08T15:28:00.571Z,100886.63
2023-01-08T15:30:38.133Z,100876.03
2023-01-08T15:33:24.660Z,100872.66
2023-01-08T15:35:51.948Z,100882.56
2023-01-08T15:38:23.985Z,100872.81
2023-01-08T15:40:53.366Z,100872.03
2023-01-08T15:43:21.665Z,100878.75
2023-01-08T15:45:50.121Z,100882.84
2023-01-08T15:48:17.488Z,100881.56
2023-01-08T15:50:45.280Z,100880.22
2023-01-08T15:53:30.581Z,100864.69
2023-01-08T15:55:57.809Z,100860.69
2023-01-08T15:58:25.078Z,100875.19
2023-01-08T16:00:52.443Z,100881.41
2023-01-08T16:03:20.306Z,100882.75
2023-01-08T16:05:47.536Z,100884.97
2023-01-08T16:08:14.895Z,100876.41
2023-01-08T16:10:42.311Z,100873.97
2023-01-08T16:13:11.869Z,100873.97
2023-01-08T16:15:39.637Z,100860.50
2023-01-08T16:18:06.854Z,100860.53
2023-01-08T16:20:34.148Z,100857.09
2023-01-08T16:23:01.461Z,100858.38
2023-01-08T16:25:28.839Z,100855.16
2023-01-08T16:27:56.180Z,100845.72
2023-01-08T16:30:23.735Z,100843.34
2023-01-08T16:32:54.409Z,100849.25
2023-01-08T16:35:22.270Z,100856.75
2023-01-08T16:37:49.563Z,100860.03
2023-01-08T16:40:17.051Z,100868.56
2023-01-08T16:42:44.396Z,100867.84
2023-01-08T16:45:11.865Z,100844.94
2023-01-08T16:47:39.472Z,100838.31
2023-01-08T16:50:07.315Z,100844.16
2023-01-08T16:52:34.557Z,100826.91
2023-01-08T16:55:01.829Z,100834.41
2023-01-08T16:57:29.060Z,100835.13
2023-01-08T16:59:56.630Z,100831.84
2023-01-08T17:02:24.003Z,100837.44
2023-01-08T17:04:51.257Z,100827.34
2023-01-08T17:07:18.547Z,100823.50
2023-01-08T17:09:45.972Z,100820.78
2023-01-08T17:12:22.615Z,100820.03
2023-01-08T17:14:50.816Z,100819.69
2023-01-08T17:17:18.228Z,100825.72
2023-01-08T17:19:45.604Z,100837.50
2023-01-08T17:22:13.029Z,100827.44
2023-01-08T17:24:40.866Z,100816.28
2023-01-08T17:27:08.549Z,100804.00
2023-01-08T17:29:35.856Z,100797.97
2023-01-08T17:32:03.550Z,100797.19
2023-01-08T17:34:31.244Z,100777.97
2023-01-08T17:36:58.483Z,100773.63
2023-01-08T17:39:25.903Z,100763.44
2023-01-08T17:42:11.499Z,100764.59
2023-01-08T17:44:39.001Z,100766.50
2023-01-08T17:47:06.338Z,100768.91
2023-01-08T17:49:33.741Z,100772.16
2023-01-08T17:52:01.107Z,100774.13
2023-01-08T17:54:28.898Z,100777.41
2023-01-08T17:56:56.212Z,100783.69
2023-01-08T17:59:23.660Z,100800.88
2023-01-08T18:01:52.156Z,100800.56
2023-01-08T18:04:19.544Z,100812.06
2023-01-08T18:06:46.794Z,100813.44
2023-01-08T18:09:14.209Z,100807.94
2023-01-08T18:11:42.124Z,100805.13
2023-01-08T18:14:10.817Z,100805.06
2023-01-08T18:16:38.461Z,100814.91
2023-01-08T18:19:06.083Z,100809.91
2023-01-08T18:21:33.402Z,100798.31
2023-01-08T18:24:00.892Z,100806.22
2023-01-08T18:26:29.200Z,100803.22
2023-01-08T18:28:56.610Z,100800.84
2023-01-08T18:31:23.913Z,100799.44
2023-01-08T18:33:51.977Z,100799.22
2023-01-08T18:36:19.842Z,100790.66
2023-01-08T18:38:47.797Z,100798.13
2023-01-08T18:41:36.444Z,100799.09
2023-01-08T18:44:04.798Z,100801.25
2023-01-08T18:46:32.198Z,100788.72
2023-01-08T18:48:59.650Z,100790.91
2023-01-08T18:51:26.868Z,100782.53
2023-01-08T18:53:55.749Z,100794.09
2023-01-08T18:56:33.476Z,100796.88
2023-01-08T18:59:01.573Z,100802.19
2023-01-08T19:01:29.172Z,100796.44
2023-01-08T19:03:56.983Z,100801.72
2023-01-08T19:06:24.597Z,100796.13
2023-01-08T19:08:52.412Z,100788.03
2023-01-08T19:11:20.009Z,100801.28
2023-01-08T19:13:47.485Z,100794.03
2023-01-08T19:16:17.267Z,100793.56
2023-01-08T19:18:44.702Z,100789.94
2023-01-08T19:21:14.735Z,100779.91
2023-01-08T19:23:41.977Z,100772.66
2023-01-08T19:26:09.225Z,100754.00
2023-01-08T19:28:36.802Z,100742.47
2023-01-08T19:31:04.171Z,100753.47
2023-01-08T19:33:31.639Z,100747.63
2023-01-08T19:36:03.275Z,100748.41
2023-01-08T19:38:30.728Z,100731.94
2023-01-08T19:41:00.243Z,100744.69
2023-01-08T19:43:42.736Z,100740.63
2023-01-08T19:46:12.076Z,100741.78
2023-01-08T19:48:41.060Z,100732.66
2023-01-08T19:51:09.109Z,100745.34
2023-01-08T19:53:36.778Z,100733.41
2023-01-08T19:56:05.073Z,100721.84
2023-01-08T19:58:32.352Z,100717.75
2023-01-08T20:00:59.579Z,100707.16
2023-01-08T20:03:28.282Z,100719.84
2023-01-08T20:05:55.622Z,100724.28
2023-01-08T20:08:22.850Z,100735.13
2023-01-08T20:10:50.074Z,100742.63
2023-01-08T20:13:17.423Z,100738.34
2023-01-08T20:15:44.595Z,100762.63
2023-01-08T20:18:11.774Z,100752.94
2023-01-08T20:20:39.186Z,100756.44
2023-01-08T20:23:06.477Z,100758.56
2023-01-08T20:25:34.394Z,100756.31
2023-01-08T20:28:01.839Z,100760.41
2023-01-08T20:30:29.240Z,100758.44
2023-01-08T20:32:56.538Z,100737.88
2023-01-08T20:35:23.879Z,100738.63
2023-01-08T20:37:51.079Z,100715.44
2023-01-08T20:40:18.287Z,100724.03
2023-01-08T20:42:46.878Z,100720.38
2023-01-08T20:45:14.127Z,100720.34
2023-01-08T20:47:42.527Z,100734.03
2023-01-08T20:50:19.534Z,100746.22
2023-01-08T20:52:47.831Z,100735.28
2023-01-08T20:55:17.531Z,100725.16
2023-01-08T20:57:45.899Z,100731.81
2023-01-08T21:00:13.337Z,100726.25
2023-01-08T21:02:41.121Z,100734.28
2023-01-08T21:05:08.560Z,100737.09
2023-01-08T21:07:35.857Z,100723.88
2023-01-08T21:10:03.378Z,100719.06
2023-01-08T21:12:31.809Z,100704.91
2023-01-08T21:14:58.987Z,100698.38
2023-01-08T21:17:26.303Z,100693.28
2023-01-08T21:19:53.501Z,100693.41
2023-01-08T21:22:20.794Z,100693.97
2023-01-08T21:24:48.092Z,100694.31
2023-01-08T21:27:15.447Z,100713.47
2023-01-08T21:29:43.077Z,100712.97
2023-01-08T21:32:10.548Z,100721.84
2023-01-08T21:34:37.768Z,100732.94
2023-01-08T21:37:05.350Z,100729.44
2023-01-08T21:39:33.223Z,100721.00
2023-01-08T21:42:19.081Z,100711.19
2023-01-08T21:45:05.158Z,100707.38
2023-01-08T21:47:32.487Z,100711.31
2023-01-08T21:49:59.777Z,100705.94
2023-01-08T21:52:45.834Z,100712.88
2023-01-08T21:55:16.891Z,100697.34
2023-01-08T21:57:45.245Z,100687.03
2023-01-08T22:00:13.378Z,100679.25
2023-01-08T22:02:40.810Z,100671.22
2023-01-08T22:05:08.232Z,100683.72
2023-01-08T22:07:35.853Z,100690.66
2023-01-08T22:10:03.655Z,100687.28
2023-01-08T22:12:30.990Z,100684.47
2023-01-08T22:14:58.456Z,100692.84
2023-01-08T22:17:26.520Z,100692.28
2023-01-08T22:19:53.918Z,100696.84
2023-01-08T22:22:21.374Z,100682.22
2023-01-08T22:24:50.111Z,100688.97
2023-01-08T22:27:17.539Z,100678.59
2023-01-08T22:29:44.747Z,100667.28
2023-01-08T22:32:12.096Z,100660.72
2023-01-08T22:34:39.844Z,100657.66
2023-01-08T22:37:07.052Z,100646.09
2023-01-08T22:39:34.277Z,100641.63
2023-01-08T22:42:01.657Z,100635.66
2023-01-08T22:44:28.953Z,100637.22
2023-01-08T22:46:56.709Z,100640.06
2023-01-08T22:49:23.930Z,100647.16
2023-01-08T22:51:51.243Z,100636.63
2023-01-08T22:54:18.665Z,100649.66
2023-01-08T22:56:45.918Z,100648.56
2023-01-08T22:59:13.111Z,100645.34
2023-01-08T23:01:40.470Z,100638.94
2023-01-08T23:04:07.906Z,100623.16
2023-01-08T23:06:35.864Z,100624.88
2023-01-08T23:09:03.312Z,100623.06
2023-01-08T23:11:30.729Z,100625.53
2023-01-08T23:13:59.703Z,100628.88
2023-01-08T23:16:27.031Z,100627.34
2023-01-08T23:18:54.924Z,100619.38
2023-01-08T23:21:23.449Z,100620.50
2023-01-08T23:23:50.984Z,100617.75
2023-01-08T23:26:20.474Z,100621.28
2023-01-08T23:28:48.314Z,100622.66
2023-01-08T23:31:16.836Z,100607.91
2023-01-08T23:33:44.510Z,100600.53
2023-01-08T23:36:18.312Z,100598.28
2023-01-08T23:38:46.530Z,100604.00
2023-01-08T23:41:14.193Z,100598.16
2023-01-08T23:43:41.573Z,100597.09
2023-01-08T23:46:09.374Z,100593.63
2023-01-08T23:48:36.691Z,100588.63
2023-01-08T23:51:04.066Z,100581.75
2023-01-08T23:53:31.312Z,100594.50
2023-01-08T23:55:58.816Z,100598.34
2023-01-08T23:58:26.090Z,100607.13
